Time;durP1;ratioP1;P1;durP2;ratioP2;P2;SDS_P1;SDS_P2;PMS_P1;PMS_P2;Temp;Humidity;BMP_temperature;BMP_pressure;BME280_temperature;BME280_humidity;BME280_pressure;Samples;Min_cycle;Max_cycle;Signal;HPM_P1;HPM_P2
2022/09/15 00:01:55;;;;;;;4.13;2.63;;;;;;;24.79;70.41;96470.72;5052808;28;20201;-31
2022/09/15 00:04:22;;;;;;;2.87;2.57;;;;;;;24.79;70.31;96481.84;5066040;28;20211;-32
2022/09/15 00:06:48;;;;;;;2.40;2.20;;;;;;;24.79;70.55;96476.72;5059457;28;20208;-31
2022/09/15 00:09:15;;;;;;;4.03;2.30;;;;;;;24.80;70.27;96469.84;5051916;28;20232;-31
2022/09/15 00:11:41;;;;;;;4.47;2.40;;;;;;;24.80;70.04;96472.41;5059274;28;20227;-30
2022/09/15 00:14:08;;;;;;;3.47;2.70;;;;;;;24.80;70.06;96464.69;5050007;28;20201;-31
2022/09/15 00:16:35;;;;;;;2.60;2.40;;;;;;;24.75;70.03;96456.16;5058050;28;20196;-31
2022/09/15 00:19:01;;;;;;;2.63;2.33;;;;;;;24.75;70.24;96451.84;5066861;28;20220;-31
2022/09/15 00:21:30;;;;;;;2.60;2.40;;;;;;;24.69;70.36;96446.72;5054781;28;20208;-32
2022/09/15 00:23:57;;;;;;;2.90;2.60;;;;;;;24.80;70.28;96462.13;5054879;28;20630;-31
2022/09/15 00:26:25;;;;;;;3.70;2.20;;;;;;;24.81;70.20;96462.13;5056359;28;20204;-31
2022/09/15 00:28:52;;;;;;;2.73;2.53;;;;;;;24.81;70.27;96458.72;5057307;28;20224;-31
2022/09/15 00:31:20;;;;;;;2.50;2.30;;;;;;;24.81;70.39;96459.56;5050148;28;20225;-31
2022/09/15 00:33:47;;;;;;;2.77;2.50;;;;;;;24.81;70.37;96457.00;5057333;28;20319;-31
2022/09/15 00:36:14;;;;;;;2.63;2.43;;;;;;;24.81;69.97;96449.28;5048458;28;20204;-31
2022/09/15 00:38:40;;;;;;;2.47;2.27;;;;;;;24.81;70.28;96446.72;5065716;28;20223;-30
2022/09/15 00:41:08;;;;;;;2.50;2.30;;;;;;;24.82;69.90;96445.88;5048067;28;20220;-31
2022/09/15 00:43:48;;;;;;;2.47;2.20;;;;;;;24.82;69.97;96445.00;5053993;28;20200;-31
2022/09/15 00:46:16;;;;;;;2.80;2.60;;;;;;;24.81;70.06;96439.00;5054407;28;20356;-32
2022/09/15 00:49:13;;;;;;;2.50;2.30;;;;;;;24.82;70.01;96432.16;5052867;28;20594;-31
2022/09/15 00:51:48;;;;;;;5.33;2.70;;;;;;;24.83;70.02;96436.44;5052828;28;20707;-31
2022/09/15 00:54:24;;;;;;;2.73;2.20;;;;;;;24.82;69.93;96427.88;5057836;28;20201;-31
2022/09/15 00:56:52;;;;;;;2.40;2.20;;;;;;;24.77;70.31;96416.75;5044590;28;20211;-31
2022/09/15 00:59:22;;;;;;;2.40;2.20;;;;;;;24.83;70.03;96418.44;5056199;28;20231;-31
2022/09/15 01:01:51;;;;;;;2.40;2.20;;;;;;;24.76;70.07;96407.34;5054649;28;20200;-31
2022/09/15 01:04:17;;;;;;;2.40;2.20;;;;;;;24.81;70.02;96421.00;5041416;28;20717;-31
2022/09/15 01:06:51;;;;;;;2.00;1.90;;;;;;;24.68;70.04;96403.03;5063988;28;20200;-31
2022/09/15 01:09:23;;;;;;;2.63;2.43;;;;;;;24.82;70.21;96417.59;5081192;22;20235;-24
2022/09/15 01:11:50;;;;;;;3.27;2.73;;;;;;;24.82;69.73;96425.31;5045212;28;20291;-23
2022/09/15 01:14:16;;;;;;;2.43;2.10;;;;;;;24.82;70.34;96422.75;5050698;28;20205;-24
2022/09/15 01:17:06;;;;;;;2.50;2.10;;;;;;;24.83;70.16;96415.88;5066612;28;20235;-23
2022/09/15 01:19:54;;;;;;;3.67;2.30;;;;;;;24.83;69.73;96418.44;5027738;28;20222;-24
2022/09/15 01:22:40;;;;;;;2.40;2.20;;;;;;;24.83;69.69;96421.00;5042116;28;20216;-25
2022/09/15 01:25:34;;;;;;;2.63;2.30;;;;;;;24.81;70.13;96409.91;5043578;28;20212;-24
2022/09/15 01:28:18;;;;;;;2.33;2.17;;;;;;;24.83;69.79;96432.16;5042460;28;20205;-24
2022/09/15 01:30:50;;;;;;;2.40;2.20;;;;;;;24.67;69.69;96401.34;5038509;28;20228;-24
2022/09/15 01:33:22;;;;;;;2.67;2.20;;;;;;;24.67;69.86;96396.19;5036938;28;20201;-25
2022/09/15 01:35:57;;;;;;;2.20;2.00;;;;;;;24.83;70.09;96421.88;5029684;28;20208;-24
2022/09/15 01:38:47;;;;;;;2.23;2.10;;;;;;;24.79;69.68;96397.06;5030374;28;20205;-24
2022/09/15 01:41:18;;;;;;;2.50;2.30;;;;;;;24.83;70.20;96403.88;5038998;28;20204;-25
2022/09/15 01:43:48;;;;;;;2.50;2.30;;;;;;;24.84;69.95;96412.47;5035361;28;20205;-23
2022/09/15 01:46:18;;;;;;;2.37;2.17;;;;;;;24.84;70.18;96415.03;5040848;28;20202;-24
2022/09/15 01:48:44;;;;;;;2.30;2.10;;;;;;;24.78;69.59;96400.47;5043311;28;20220;-25
2022/09/15 01:51:11;;;;;;;2.27;2.07;;;;;;;24.79;69.61;96411.59;5038664;28;20221;-24
2022/09/15 01:53:37;;;;;;;3.33;1.90;;;;;;;24.78;69.94;96407.34;5028667;28;20679;-24
2022/09/15 01:56:08;;;;;;;2.50;2.30;;;;;;;24.82;70.03;96438.16;5026432;28;20212;-24
2022/09/15 01:58:36;;;;;;;2.20;2.00;;;;;;;24.83;69.65;96421.00;5036719;28;20527;-24
2022/09/15 02:01:12;;;;;;;2.30;2.10;;;;;;;24.64;70.16;96384.19;5016838;28;20560;-24
2022/09/15 02:04:07;;;;;;;2.30;2.10;;;;;;;24.79;69.89;96417.59;5037189;28;20291;-24
2022/09/15 02:06:38;;;;;;;2.40;2.10;;;;;;;24.83;69.57;96419.31;4998361;28;20198;-24
2022/09/15 02:09:29;;;;;;;2.40;2.20;;;;;;;24.78;69.52;96407.34;5037047;28;20641;-24
2022/09/15 02:12:06;;;;;;;1.93;1.83;;;;;;;24.84;69.78;96412.47;5038724;28;20228;-24
2022/09/15 02:14:46;;;;;;;2.50;2.30;;;;;;;24.80;69.66;96403.03;5044567;28;20209;-24
2022/09/15 02:17:15;;;;;;;2.00;1.90;;;;;;;24.79;69.99;96402.19;5052130;28;20683;-24
2022/09/15 02:19:45;;;;;;;2.20;2.10;;;;;;;24.84;69.46;96409.91;5032593;28;20221;-24
2022/09/15 02:22:26;;;;;;;2.57;2.37;;;;;;;24.83;70.09;96406.47;5032725;28;20204;-24
2022/09/15 02:25:01;;;;;;;2.30;2.10;;;;;;;24.83;70.08;96401.31;5020301;28;20659;-23
2022/09/15 02:27:30;;;;;;;2.17;2.03;;;;;;;24.84;70.16;96407.31;5042949;28;20325;-24
2022/09/15 02:30:00;;;;;;;2.43;2.23;;;;;;;24.83;69.75;96403.88;5025558;28;20583;-24
2022/09/15 02:32:26;;;;;;;2.20;2.00;;;;;;;24.78;69.93;96392.75;5042073;28;20718;-24
2022/09/15 02:34:53;;;;;;;2.50;2.30;;;;;;;24.84;69.92;96391.91;5044126;28;20687;-24
2022/09/15 02:37:20;;;;;;;1.90;1.80;;;;;;;24.83;69.89;96396.19;5043196;28;20205;-24
2022/09/15 02:39:50;;;;;;;2.40;2.20;;;;;;;24.84;70.05;96402.19;5040771;28;20221;-24
2022/09/15 02:42:27;;;;;;;2.20;2.00;;;;;;;24.83;70.05;96405.59;5027508;28;20198;-24
2022/09/15 02:44:54;;;;;;;2.30;2.10;;;;;;;24.77;70.15;96392.75;5044765;28;20629;-24
2022/09/15 02:47:21;;;;;;;2.17;1.97;;;;;;;24.84;69.72;96407.31;5034781;28;20673;-24
2022/09/15 02:49:47;;;;;;;2.27;2.17;;;;;;;24.84;69.98;96408.16;5039378;28;20619;-24
2022/09/15 02:52:14;;;;;;;2.20;2.00;;;;;;;24.79;69.90;96398.75;5042806;28;20213;-24
2022/09/15 02:54:40;;;;;;;2.47;2.23;;;;;;;24.85;69.81;96406.47;5042005;28;20202;-23
2022/09/15 02:57:08;;;;;;;2.37;2.17;;;;;;;24.85;69.52;96416.75;5029832;28;20207;-24
2022/09/15 03:02:19;;;;;;;2.30;2.10;;;;;;;24.85;69.48;96407.31;5032078;28;20197;-24
2022/09/15 03:04:46;;;;;;;2.63;2.33;;;;;;;24.86;69.82;96408.16;5034915;28;20250;-24
2022/09/15 03:07:13;;;;;;;2.07;1.90;;;;;;;24.77;69.66;96393.63;5030490;28;20764;-24
2022/09/15 03:09:39;;;;;;;2.47;2.27;;;;;;;24.74;69.41;96392.75;5045991;28;20635;-24
2022/09/15 03:12:06;;;;;;;2.20;2.00;;;;;;;24.84;69.42;96402.19;5035852;28;20607;-24
2022/09/15 03:14:33;;;;;;;2.30;2.10;;;;;;;24.85;69.37;96407.31;5040494;28;20200;-24
2022/09/15 03:16:59;;;;;;;2.53;2.30;;;;;;;24.86;69.38;96411.59;5036861;28;20216;-24
2022/09/15 03:19:26;;;;;;;2.10;1.90;;;;;;;24.86;69.70;96410.72;5037911;28;20224;-24
2022/09/15 03:21:52;;;;;;;2.33;2.00;;;;;;;24.86;69.48;96403.88;5031695;28;20275;-24
2022/09/15 03:24:19;;;;;;;2.10;2.00;;;;;;;24.86;69.44;96400.44;5035039;28;20204;-24
2022/09/15 03:26:45;;;;;;;2.20;2.00;;;;;;;24.86;69.83;96406.44;5040281;28;20200;-24
2022/09/15 03:29:12;;;;;;;2.43;2.23;;;;;;;24.87;69.28;96404.75;5043476;28;20227;-24
2022/09/15 03:31:38;;;;;;;2.90;2.20;;;;;;;24.76;69.55;96389.34;5049003;28;20228;-24
2022/09/15 03:34:05;;;;;;;2.23;2.03;;;;;;;24.86;69.58;96401.31;5037540;28;20252;-24
2022/09/15 03:36:31;;;;;;;2.30;2.10;;;;;;;24.87;69.24;96399.63;5038040;28;20201;-24
2022/09/15 03:38:58;;;;;;;2.50;2.23;;;;;;;24.74;69.70;96380.78;5030678;28;20715;-24
2022/09/15 03:41:25;;;;;;;2.57;2.30;;;;;;;24.85;69.51;96398.75;5035771;28;20193;-24
2022/09/15 03:43:51;;;;;;;2.00;1.90;;;;;;;24.78;69.33;96390.19;5039374;28;20212;-24
2022/09/15 03:46:18;;;;;;;2.00;1.87;;;;;;;24.84;69.23;96391.91;5043862;28;20252;-24
2022/09/15 03:48:46;;;;;;;2.30;2.20;;;;;;;24.83;69.70;96398.75;5038713;28;20719;-24
2022/09/15 03:51:12;;;;;;;2.20;2.00;;;;;;;24.82;69.16;96402.19;5037057;28;20678;-24
2022/09/15 03:53:39;;;;;;;2.40;1.87;;;;;;;24.84;69.38;96392.75;5038878;28;20211;-24
2022/09/15 03:56:07;;;;;;;2.20;2.00;;;;;;;24.84;69.62;96399.63;5029177;28;20201;-24
2022/09/15 03:58:33;;;;;;;2.23;2.03;;;;;;;24.82;69.29;96389.34;5036778;28;20595;-24
2022/09/15 04:01:00;;;;;;;1.90;1.80;;;;;;;24.82;69.44;96386.78;5037377;28;20209;-24
2022/09/15 04:03:26;;;;;;;2.10;2.00;;;;;;;24.84;69.31;96386.78;5044871;28;20243;-24
2022/09/15 04:05:53;;;;;;;2.43;2.03;;;;;;;24.83;69.51;96390.19;5039036;28;20201;-25
2022/09/15 04:08:19;;;;;;;1.70;1.60;;;;;;;24.78;69.51;96379.06;5048015;28;20201;-24
2022/09/15 04:10:47;;;;;;;2.20;2.00;;;;;;;24.83;69.43;96395.31;5046054;28;20200;-23
2022/09/15 04:13:13;;;;;;;1.90;1.80;;;;;;;24.83;69.77;96385.03;5037557;28;20227;-24
2022/09/15 04:15:40;;;;;;;2.10;2.00;;;;;;;24.82;69.41;96384.19;5041270;28;20642;-24
2022/09/15 04:18:06;;;;;;;1.93;1.83;;;;;;;24.83;69.55;96387.59;5032756;28;20206;-24
2022/09/15 04:20:32;;;;;;;2.23;2.03;;;;;;;24.75;69.45;96371.38;5041311;28;20738;-24
2022/09/15 04:22:59;;;;;;;2.07;1.87;;;;;;;24.81;69.39;96382.47;5032209;28;20207;-24
2022/09/15 04:25:26;;;;;;;2.07;1.87;;;;;;;24.82;69.53;96379.06;5034221;28;20209;-25
2022/09/15 04:27:53;;;;;;;1.90;1.80;;;;;;;24.83;69.35;96379.91;5044670;28;20583;-24
2022/09/15 04:30:19;;;;;;;1.70;1.60;;;;;;;24.81;69.67;96374.75;5032764;28;20221;-24
2022/09/15 04:32:46;;;;;;;2.40;2.10;;;;;;;24.82;69.61;96373.06;5045319;28;20736;-25
2022/09/15 04:35:12;;;;;;;2.30;2.10;;;;;;;24.78;69.37;96372.19;5039702;28;20553;-24
2022/09/15 04:37:39;;;;;;;2.33;1.90;;;;;;;24.82;69.29;96383.34;5035207;28;20510;-24
2022/09/15 04:40:06;;;;;;;2.53;2.13;;;;;;;24.81;69.87;96384.19;5031139;28;20236;-24
2022/09/15 04:42:33;;;;;;;1.93;1.83;;;;;;;24.81;69.46;96379.91;5032973;28;20198;-25
2022/09/15 04:45:00;;;;;;;1.73;1.63;;;;;;;24.81;69.61;96377.31;5046590;28;20719;-24
2022/09/15 04:47:26;;;;;;;2.30;2.07;;;;;;;24.82;69.39;96375.63;5041230;28;20614;-25
2022/09/15 04:49:53;;;;;;;1.90;1.80;;;;;;;24.80;69.40;96370.50;5041673;28;20240;-25
2022/09/15 04:52:20;;;;;;;1.90;1.80;;;;;;;24.81;69.39;96372.19;5033810;28;20760;-25
2022/09/15 04:54:46;;;;;;;2.10;1.90;;;;;;;24.81;69.21;96368.78;5043133;28;20205;-24
2022/09/15 04:57:13;;;;;;;2.73;2.20;;;;;;;24.81;69.25;96363.66;5042926;28;20232;-24
2022/09/15 04:59:39;;;;;;;2.07;1.93;;;;;;;24.81;69.81;96361.06;5033707;28;20680;-24
2022/09/15 05:02:06;;;;;;;1.70;1.60;;;;;;;24.81;69.58;96366.22;5044270;28;20204;-24
2022/09/15 05:04:33;;;;;;;2.13;1.90;;;;;;;24.80;69.42;96378.19;5032729;28;20212;-25
2022/09/15 05:07:00;;;;;;;2.73;1.93;;;;;;;24.81;69.61;96371.34;5045497;28;20288;-24
2022/09/15 05:09:28;;;;;;;2.20;2.00;;;;;;;24.81;69.85;96372.19;5040586;28;20239;-24
2022/09/15 05:11:55;;;;;;;1.90;1.80;;;;;;;24.80;69.27;96367.06;5033877;28;20217;-24
2022/09/15 05:14:22;;;;;;;2.20;2.00;;;;;;;24.81;69.65;96369.63;5045445;28;20196;-24
2022/09/15 05:16:48;;;;;;;2.00;1.90;;;;;;;24.81;69.55;96372.19;5046797;28;20212;-24
2022/09/15 05:19:14;;;;;;;2.23;1.70;;;;;;;24.80;69.35;96364.47;5037455;28;20220;-24
2022/09/15 05:21:41;;;;;;;2.00;1.90;;;;;;;24.80;69.25;96365.34;5031344;28;20228;-24
2022/09/15 05:24:08;;;;;;;2.10;1.90;;;;;;;24.80;69.66;96365.34;5031422;28;20201;-24
2022/09/15 05:26:34;;;;;;;1.80;1.70;;;;;;;24.80;69.64;96370.50;5046692;28;20207;-24
2022/09/15 05:29:01;;;;;;;1.80;1.70;;;;;;;24.81;69.63;96372.19;5041140;28;20225;-24
2022/09/15 05:31:29;;;;;;;1.83;1.73;;;;;;;24.81;69.59;96374.75;5048657;28;20212;-23
2022/09/15 05:33:58;;;;;;;2.20;2.00;;;;;;;24.81;69.34;96372.19;5040977;28;20235;-24
2022/09/15 05:36:25;;;;;;;2.03;1.83;;;;;;;24.81;69.35;96373.94;5035335;28;20201;-24
2022/09/15 05:38:52;;;;;;;1.93;1.83;;;;;;;24.80;69.33;96380.75;5032249;28;20240;-24
2022/09/15 05:41:19;;;;;;;2.23;2.00;;;;;;;24.81;69.47;96379.06;5037246;28;20216;-24
2022/09/15 05:43:46;;;;;;;1.80;1.70;;;;;;;24.75;69.16;96372.19;5041734;28;20200;-23
2022/09/15 05:46:13;;;;;;;1.77;1.67;;;;;;;24.67;69.52;96353.38;5046155;28;20208;-24
2022/09/15 05:48:39;;;;;;;1.90;1.80;;;;;;;24.81;69.04;96381.63;5049327;28;20274;-24
2022/09/15 05:51:06;;;;;;;1.83;1.73;;;;;;;24.81;69.58;96387.59;5039022;28;20205;-23
2022/09/15 05:53:33;;;;;;;1.80;1.70;;;;;;;24.82;69.09;96385.91;5050459;28;20244;-24
2022/09/15 05:56:02;;;;;;;1.63;1.53;;;;;;;24.82;69.51;96383.34;5039694;28;20710;-25
2022/09/15 05:58:29;;;;;;;1.90;1.80;;;;;;;24.81;69.18;96387.59;5048258;28;20677;-24
2022/09/15 06:00:56;;;;;;;1.87;1.77;;;;;;;24.81;69.64;96390.19;5042181;28;20660;-24
2022/09/15 06:03:22;;;;;;;1.97;1.87;;;;;;;24.82;69.21;96389.34;5038684;28;20202;-24
2022/09/15 06:05:59;;;;;;;1.90;1.80;;;;;;;24.74;69.59;96380.78;5039228;28;20200;-24
2022/09/15 06:08:33;;;;;;;1.90;1.80;;;;;;;24.82;69.34;96383.34;5046364;28;20201;-24
2022/09/15 06:11:13;;;;;;;2.03;1.83;;;;;;;24.79;69.12;96383.34;5040350;28;20243;-24
2022/09/15 06:13:40;;;;;;;1.70;1.60;;;;;;;24.72;69.65;96368.81;5042037;28;20225;-23
2022/09/15 06:16:08;;;;;;;2.63;2.00;;;;;;;24.82;69.18;96380.75;5039106;28;20198;-24
2022/09/15 06:18:36;;;;;;;2.13;1.97;;;;;;;24.75;69.34;96371.38;5034873;28;20712;-24
2022/09/15 06:21:07;;;;;;;1.83;1.70;;;;;;;24.75;69.45;96369.63;5037673;28;20197;-25
2022/09/15 06:23:34;;;;;;;2.03;1.87;;;;;;;24.81;69.13;96384.19;5041038;28;20204;-23
2022/09/15 06:26:05;;;;;;;1.93;1.80;;;;;;;24.82;69.62;96381.63;5036513;28;20617;-25
2022/09/15 06:28:32;;;;;;;1.93;1.83;;;;;;;24.82;69.62;96383.34;5037304;28;20226;-24
2022/09/15 06:30:59;;;;;;;1.80;1.70;;;;;;;24.82;69.18;96378.19;5038271;28;20209;-25
2022/09/15 06:33:26;;;;;;;2.00;1.80;;;;;;;24.81;69.16;96387.59;5036764;28;20236;-24
2022/09/15 06:35:53;;;;;;;1.90;1.80;;;;;;;24.82;69.18;96385.91;5034137;28;20210;-24
2022/09/15 06:38:19;;;;;;;1.87;1.77;;;;;;;24.82;69.29;96385.91;5030771;28;20687;-24
2022/09/15 06:40:56;;;;;;;1.87;1.77;;;;;;;24.81;69.13;96387.59;5042296;28;20224;-24
2022/09/15 06:43:23;;;;;;;1.80;1.70;;;;;;;24.82;69.09;96388.47;5048947;28;20211;-24
2022/09/15 06:45:49;;;;;;;1.80;1.70;;;;;;;24.80;69.32;96391.03;5032773;28;20206;-24
2022/09/15 06:48:17;;;;;;;1.70;1.60;;;;;;;24.82;69.03;96402.19;5039290;28;20205;-23
2022/09/15 06:50:53;;;;;;;2.17;1.97;;;;;;;24.80;69.41;96393.63;5039211;28;20206;-24
2022/09/15 06:53:20;;;;;;;1.80;1.70;;;;;;;24.82;69.13;96411.59;5037667;28;20233;-24
2022/09/15 06:55:47;;;;;;;1.80;1.70;;;;;;;24.82;68.88;96409.03;5049330;28;20220;-23
2022/09/15 06:58:14;;;;;;;1.70;1.60;;;;;;;24.81;69.31;96421.00;5036111;28;20691;-23
2022/09/15 07:00:41;;;;;;;2.10;1.90;;;;;;;24.81;69.32;96413.31;5041088;28;20209;-24
2022/09/15 07:03:07;;;;;;;1.90;1.70;;;;;;;24.80;69.11;96406.47;5014186;28;20193;-24
2022/09/15 07:05:34;;;;;;;1.80;1.70;;;;;;;24.81;69.12;96415.03;5049118;28;20668;-24
2022/09/15 07:08:01;;;;;;;1.90;1.80;;;;;;;24.81;69.02;96417.59;5031590;28;20213;-24
2022/09/15 07:10:27;;;;;;;1.80;1.70;;;;;;;24.78;69.34;96408.16;5091402;22;20873;-31
2022/09/15 07:12:54;;;;;;;1.77;1.67;;;;;;;24.79;69.42;96409.03;5079449;28;20613;-31
2022/09/15 07:15:23;;;;;;;1.63;1.53;;;;;;;24.81;69.00;96418.44;5077213;28;20200;-31
2022/09/15 07:17:50;;;;;;;1.80;1.70;;;;;;;24.82;69.38;96424.44;5074813;28;20200;-32
2022/09/15 07:20:16;;;;;;;2.00;1.90;;;;;;;24.82;69.26;96429.59;5055324;28;20232;-31
2022/09/15 07:22:43;;;;;;;1.80;1.70;;;;;;;24.82;69.46;96430.47;5053265;28;20200;-31
2022/09/15 07:25:09;;;;;;;1.70;1.60;;;;;;;24.82;69.18;96424.44;5054786;28;20209;-31
2022/09/15 07:27:36;;;;;;;1.70;1.60;;;;;;;24.82;68.91;96427.03;5057155;28;20204;-31
2022/09/15 07:30:07;;;;;;;1.80;1.70;;;;;;;24.82;69.14;96433.03;5054826;28;20223;-31
2022/09/15 07:32:33;;;;;;;1.73;1.63;;;;;;;24.82;69.14;96430.47;5057491;28;20230;-31
2022/09/15 07:35:01;;;;;;;1.80;1.70;;;;;;;24.82;69.34;96432.16;5056854;28;20213;-31
2022/09/15 07:37:27;;;;;;;1.80;1.70;;;;;;;24.82;69.23;96433.03;5056447;28;20200;-32
2022/09/15 07:39:54;;;;;;;1.97;1.60;;;;;;;24.81;69.33;96431.28;5052611;28;20702;-31
2022/09/15 07:42:20;;;;;;;1.77;1.67;;;;;;;24.82;69.19;96432.16;5059948;28;20490;-31
2022/09/15 07:44:47;;;;;;;1.57;1.47;;;;;;;24.81;69.29;96444.13;5061891;28;20662;-31
2022/09/15 07:47:13;;;;;;;1.70;1.50;;;;;;;24.82;68.92;96439.88;5053850;28;20200;-31
2022/09/15 07:49:41;;;;;;;1.70;1.60;;;;;;;24.82;69.16;96448.44;5058336;28;20225;-31
2022/09/15 07:52:07;;;;;;;1.90;1.80;;;;;;;24.82;69.12;96450.16;5059953;28;20201;-31
2022/09/15 07:54:34;;;;;;;1.50;1.40;;;;;;;24.79;69.34;96439.88;5061851;28;20223;-31
2022/09/15 07:57:00;;;;;;;1.80;1.70;;;;;;;24.82;68.89;96447.59;5051886;28;20212;-31
2022/09/15 07:59:27;;;;;;;1.87;1.70;;;;;;;24.81;68.97;96444.13;5057328;28;20217;-31
2022/09/15 08:01:53;;;;;;;1.83;1.73;;;;;;;24.81;68.81;96439.00;5057087;28;20235;-31
2022/09/15 08:04:20;;;;;;;1.40;1.30;;;;;;;24.81;69.12;96435.59;5053904;28;20197;-31
2022/09/15 08:06:47;;;;;;;2.90;1.90;;;;;;;24.83;69.31;96436.44;5057359;28;20205;-31
2022/09/15 08:09:16;;;;;;;1.90;1.80;;;;;;;24.81;68.99;96439.00;5057464;28;20254;-31
2022/09/15 08:11:42;;;;;;;1.70;1.60;;;;;;;24.82;69.17;96432.16;5060257;28;20213;-32
2022/09/15 08:14:09;;;;;;;1.90;1.80;;;;;;;24.82;69.07;96432.16;5052038;28;20680;-31
2022/09/15 08:16:43;;;;;;;1.80;1.70;;;;;;;24.81;69.34;96436.44;5125989;27;20553;-30
2022/09/15 08:19:11;;;;;;;1.63;1.53;;;;;;;24.82;69.09;96440.75;5128681;27;20220;-32
2022/09/15 08:21:37;;;;;;;1.43;1.33;;;;;;;24.81;69.09;96441.56;5141990;27;20202;-33
2022/09/15 08:24:04;;;;;;;1.80;1.70;;;;;;;24.82;69.22;96445.88;5142024;27;20601;-33
2022/09/15 08:26:30;;;;;;;1.93;1.83;;;;;;;24.81;68.77;96446.72;5134530;27;20202;-33
2022/09/15 08:28:57;;;;;;;1.60;1.50;;;;;;;24.82;69.30;96447.59;5142954;27;20327;-32
2022/09/15 08:31:23;;;;;;;1.50;1.40;;;;;;;24.82;68.93;96453.59;5136368;27;20194;-33
2022/09/15 08:33:51;;;;;;;1.67;1.57;;;;;;;24.77;69.02;96457.00;5142537;27;20229;-33
2022/09/15 08:36:17;;;;;;;1.80;1.70;;;;;;;24.81;68.81;96463.88;5138536;27;20308;-34
2022/09/15 08:38:44;;;;;;;1.77;1.67;;;;;;;24.82;69.34;96465.56;5142444;27;20212;-33
2022/09/15 08:41:16;;;;;;;1.57;1.47;;;;;;;24.82;69.21;96463.00;5144474;27;20197;-34
2022/09/15 08:43:49;;;;;;;1.70;1.60;;;;;;;24.82;68.89;96460.44;5107495;27;20202;-33
2022/09/15 08:46:18;;;;;;;1.60;1.50;;;;;;;24.81;68.73;96459.56;5145808;27;20202;-33
2022/09/15 08:48:49;;;;;;;1.70;1.60;;;;;;;24.78;69.03;96459.56;5145642;27;20210;-33
2022/09/15 08:51:22;;;;;;;1.60;1.50;;;;;;;24.76;69.11;96466.44;5143704;27;20558;-33
2022/09/15 08:53:55;;;;;;;1.70;1.60;;;;;;;24.80;68.61;96473.28;5108409;27;20201;-33
2022/09/15 08:56:21;;;;;;;1.80;1.70;;;;;;;24.80;69.00;96475.84;5126358;27;20214;-34
2022/09/15 08:58:48;;;;;;;1.50;1.40;;;;;;;24.79;68.69;96473.28;5143108;27;20205;-33
2022/09/15 09:01:36;;;;;;;1.60;1.50;;;;;;;24.79;69.10;96479.28;5137434;27;20212;-33
2022/09/15 09:04:05;;;;;;;1.70;1.60;;;;;;;24.81;68.98;96485.25;5145345;27;20205;-34
2022/09/15 09:06:51;;;;;;;1.80;1.70;;;;;;;24.80;68.64;96472.41;5145613;27;20205;-33
2022/09/15 09:09:31;;;;;;;1.60;1.50;;;;;;;24.80;68.84;96481.00;5134801;27;20573;-33
2022/09/15 09:12:31;;;;;;;1.70;1.60;;;;;;;24.80;68.85;96481.00;5120911;27;20212;-33
2022/09/15 09:15:01;;;;;;;1.90;1.80;;;;;;;24.74;69.30;96462.13;5140532;27;20232;-34
2022/09/15 09:17:46;;;;;;;1.60;1.50;;;;;;;24.80;68.94;96472.41;5127101;27;20197;-33
2022/09/15 09:20:32;;;;;;;1.70;1.60;;;;;;;24.80;69.04;96480.13;5144980;27;20221;-34
2022/09/15 09:23:00;;;;;;;1.57;1.47;;;;;;;24.80;68.67;96468.13;5126285;27;20197;-33
2022/09/15 09:25:26;;;;;;;1.70;1.60;;;;;;;24.78;69.00;96469.00;5139590;27;20564;-33
2022/09/15 09:27:55;;;;;;;1.73;1.63;;;;;;;24.81;68.98;96471.56;5130160;27;20245;-33
2022/09/15 09:30:22;;;;;;;1.70;1.60;;;;;;;24.80;69.08;96472.41;5112558;27;20218;-34
2022/09/15 09:32:54;;;;;;;1.77;1.67;;;;;;;24.80;68.63;96472.41;5130247;27;20198;-32
2022/09/15 09:35:31;;;;;;;1.47;1.37;;;;;;;24.79;68.93;96475.84;5127267;27;20598;-33
2022/09/15 09:37:58;;;;;;;1.70;1.60;;;;;;;24.81;69.14;96489.56;5094913;27;20198;-32
2022/09/15 09:40:26;;;;;;;1.50;1.40;;;;;;;24.80;68.97;96477.56;5092793;27;20222;-33
2022/09/15 09:42:53;;;;;;;1.53;1.43;;;;;;;24.80;68.69;96478.41;5129381;27;20210;-32
2022/09/15 09:45:19;;;;;;;1.60;1.50;;;;;;;24.80;68.62;96478.41;5124573;27;20194;-32
2022/09/15 09:47:46;;;;;;;1.70;1.60;;;;;;;24.81;68.69;96479.28;5095702;27;20202;-33
2022/09/15 09:50:31;;;;;;;1.80;1.70;;;;;;;24.81;68.85;96474.16;5094461;27;20226;-32
2022/09/15 09:52:58;;;;;;;1.70;1.60;;;;;;;24.81;69.14;96471.56;5125277;27;20198;-34
2022/09/15 09:55:26;;;;;;;1.70;1.60;;;;;;;24.81;68.70;96472.41;5124839;27;20222;-33
2022/09/15 09:57:53;;;;;;;1.50;1.40;;;;;;;24.81;69.10;96474.16;5131080;27;20659;-34
2022/09/15 10:00:36;;;;;;;1.53;1.43;;;;;;;24.80;68.77;96477.56;5112290;27;20224;-33
2022/09/15 10:03:29;;;;;;;1.67;1.57;;;;;;;24.81;68.65;96474.97;5130497;27;20202;-34
2022/09/15 10:06:00;;;;;;;1.73;1.63;;;;;;;24.80;68.77;96468.13;5126856;27;20255;-33
2022/09/15 10:08:27;;;;;;;1.70;1.60;;;;;;;24.81;68.62;96472.41;5128324;27;20202;-33
2022/09/15 10:10:55;;;;;;;1.60;1.50;;;;;;;24.81;69.13;96466.44;5126572;27;20343;-34
2022/09/15 10:13:22;;;;;;;1.70;1.60;;;;;;;24.80;68.83;96468.13;5112009;27;20198;-33
2022/09/15 10:15:59;;;;;;;1.60;1.50;;;;;;;24.81;68.48;96469.00;5109701;27;20416;-33
2022/09/15 10:18:30;;;;;;;1.47;1.37;;;;;;;24.71;68.76;96459.56;5112257;27;20661;-33
2022/09/15 10:20:57;;;;;;;1.70;1.60;;;;;;;24.70;68.75;96471.56;5095037;27;20205;-35
2022/09/15 10:23:26;;;;;;;1.50;1.40;;;;;;;24.79;68.84;96470.72;5092607;27;20210;-32
2022/09/15 10:26:15;;;;;;;1.57;1.47;;;;;;;24.80;68.84;96470.72;5128275;27;20209;-34
2022/09/15 10:28:42;;;;;;;1.60;1.50;;;;;;;24.80;68.45;96464.69;5111494;27;20202;-34
2022/09/15 10:31:12;;;;;;;1.23;1.20;;;;;;;24.68;68.85;96444.16;5104066;27;20210;-32
2022/09/15 10:33:49;;;;;;;1.60;1.50;;;;;;;24.78;68.85;96464.69;5108645;27;20202;-32
2022/09/15 10:36:30;;;;;;;1.50;1.40;;;;;;;24.71;68.91;96450.16;5112445;27;20233;-33
2022/09/15 10:39:10;;;;;;;1.60;1.50;;;;;;;24.79;68.89;96471.56;5092821;27;20222;-34
2022/09/15 10:41:44;;;;;;;1.60;1.50;;;;;;;24.70;68.59;96456.16;5108331;27;20917;-34
2022/09/15 10:44:23;;;;;;;1.57;1.47;;;;;;;24.79;69.01;96486.13;5112395;27;20198;-33
2022/09/15 10:46:53;;;;;;;1.60;1.50;;;;;;;24.79;68.96;96473.28;5127542;27;20691;-33
2022/09/15 10:49:54;;;;;;;1.53;1.43;;;;;;;24.72;68.76;96464.69;5104255;27;20233;-33
2022/09/15 10:52:39;;;;;;;1.60;1.50;;;;;;;24.79;68.59;96481.84;5107070;27;20201;-33
2022/09/15 10:55:34;;;;;;;1.50;1.40;;;;;;;24.79;69.00;96496.41;5122766;27;20610;-31
2022/09/15 10:58:29;;;;;;;1.50;1.40;;;;;;;24.77;68.80;96491.25;5110842;27;20289;-34
2022/09/15 11:01:01;;;;;;;1.70;1.60;;;;;;;24.80;68.78;96498.09;5111522;27;20220;-33
2022/09/15 11:03:52;;;;;;;1.60;1.50;;;;;;;24.79;68.96;96492.13;5111347;27;20198;-33
2022/09/15 11:06:28;;;;;;;1.40;1.30;;;;;;;24.72;68.51;96482.69;5115983;27;20202;-33
2022/09/15 11:09:04;;;;;;;1.50;1.40;;;;;;;24.79;68.87;96494.72;5110002;27;20218;-33
2022/09/15 11:11:34;;;;;;;1.60;1.50;;;;;;;24.79;68.92;96497.28;5090372;28;20194;-33
2022/09/15 11:14:29;;;;;;;1.40;1.30;;;;;;;24.79;68.72;96501.53;5126739;27;20206;-34
2022/09/15 11:17:18;;;;;;;1.60;1.50;;;;;;;24.80;68.63;96495.53;5082922;27;20225;-34
2022/09/15 11:20:07;;;;;;;1.50;1.40;;;;;;;24.79;68.63;96497.28;5093068;27;20589;-33
2022/09/15 11:22:48;;;;;;;1.57;1.40;;;;;;;24.79;69.04;96496.41;5113450;27;20198;-33
2022/09/15 11:25:22;;;;;;;1.60;1.50;;;;;;;24.79;68.39;96499.84;5116782;27;20202;-34
2022/09/15 11:27:52;;;;;;;1.50;1.40;;;;;;;24.80;68.60;96498.09;5094006;27;20696;-33
2022/09/15 11:30:21;;;;;;;1.50;1.40;;;;;;;24.79;68.76;96494.72;5105696;27;20577;-33
2022/09/15 11:33:09;;;;;;;1.60;1.50;;;;;;;24.79;68.95;96489.56;5108968;27;20648;-33
2022/09/15 11:35:36;;;;;;;1.50;1.40;;;;;;;24.75;68.80;96492.97;5128858;27;20640;-32
2022/09/15 11:38:24;;;;;;;1.50;1.40;;;;;;;24.79;68.92;96494.72;5109608;27;20198;-33
2022/09/15 11:40:58;;;;;;;1.80;1.70;;;;;;;24.77;68.98;96488.69;5129129;27;20260;-34
2022/09/15 11:43:41;;;;;;;1.50;1.40;;;;;;;24.80;68.88;96493.84;5088168;27;20201;-34
2022/09/15 11:46:10;;;;;;;1.10;1.10;;;;;;;24.69;68.74;96472.41;5091900;27;20201;-34
2022/09/15 11:48:46;;;;;;;1.50;1.40;;;;;;;24.75;68.78;96480.13;5093787;27;20209;-33
2022/09/15 11:51:12;;;;;;;1.60;1.50;;;;;;;24.79;68.52;96492.13;5094379;27;20717;-34
2022/09/15 11:54:09;;;;;;;1.47;1.37;;;;;;;24.79;68.56;96484.44;5090055;28;20206;-33